Time;durP1;ratioP1;P1;durP2;ratioP2;P2;SDS_P1;SDS_P2;PMS_P1;PMS_P2;Temp;Humidity;BMP_temperature;BMP_pressure;BME280_temperature;BME280_humidity;BME280_pressure;Samples;Min_cycle;Max_cycle;Signal;HPM_P1;HPM_P2
2022/05/26 00:03:52;;;;;;;4.03;0.98;;;;;;;16.35;53.63;100096.91;12210065;19;20041;-82
2022/05/26 00:07:55;;;;;;;5.97;1.00;;;;;;;16.36;54.17;100090.25;12214999;19;20015;-83
2022/05/26 00:11:56;;;;;;;0.80;0.50;;;;;;;16.37;53.81;100093.84;12220756;19;20030;-83
2022/05/26 00:15:58;;;;;;;2.25;0.80;;;;;;;16.39;53.88;100089.69;12212818;19;20014;-84
2022/05/26 00:20:00;;;;;;;2.28;0.70;;;;;;;16.35;53.99;100087.72;12219798;19;20460;-83
2022/05/26 00:24:01;;;;;;;2.95;1.15;;;;;;;16.33;53.99;100095.50;12222531;19;20062;-83
2022/05/26 00:28:03;;;;;;;2.72;0.70;;;;;;;16.25;53.97;100087.75;12201706;19;20074;-84
2022/05/26 00:32:06;;;;;;;0.90;0.50;;;;;;;16.22;53.79;100089.16;12219148;19;20531;-82
2022/05/26 00:36:12;;;;;;;2.05;0.85;;;;;;;16.14;54.18;100096.09;12226441;19;20017;-83
2022/05/26 00:40:14;;;;;;;2.50;0.90;;;;;;;16.04;55.08;100095.28;12198161;19;20014;-83
2022/05/26 00:44:17;;;;;;;2.47;0.82;;;;;;;16.01;54.72;100098.63;12209880;19;20019;-83
2022/05/26 00:48:22;;;;;;;1.98;0.80;;;;;;;16.01;54.80;100093.91;12222175;19;20070;-83
2022/05/26 00:52:32;;;;;;;1.83;0.65;;;;;;;16.00;54.89;100095.00;12195600;19;20034;-83
2022/05/26 00:56:37;;;;;;;1.17;0.77;;;;;;;15.94;55.42;100094.19;12217674;19;20125;-84
2022/05/26 01:00:38;;;;;;;2.80;0.70;;;;;;;15.95;54.96;100097.78;12195488;19;20392;-85
2022/05/26 01:04:47;;;;;;;3.38;1.00;;;;;;;15.95;55.16;100093.06;12214026;19;20006;-82
2022/05/26 01:09:01;;;;;;;1.85;0.85;;;;;;;15.98;55.00;100102.78;12212097;19;20191;-83
2022/05/26 01:13:03;;;;;;;3.88;1.00;;;;;;;15.95;54.97;100103.34;12196084;19;20033;-83
2022/05/26 01:17:13;;;;;;;2.10;0.47;;;;;;;15.96;54.96;100105.00;12219363;19;20411;-84
2022/05/26 01:21:33;;;;;;;3.63;1.00;;;;;;;15.99;54.79;100109.19;12220941;19;20011;-84
2022/05/26 01:25:59;;;;;;;1.83;0.75;;;;;;;16.01;54.66;100106.97;12200181;19;20007;-83
2022/05/26 01:30:23;;;;;;;3.28;0.68;;;;;;;16.00;54.53;100097.78;12213290;19;20366;-83
2022/05/26 01:34:43;;;;;;;3.50;0.73;;;;;;;16.07;54.45;100100.28;12194630;19;20006;-83
2022/05/26 01:39:00;;;;;;;2.95;1.08;;;;;;;16.10;54.24;100102.50;12216203;19;20510;-83
2022/05/26 01:43:32;;;;;;;3.38;0.90;;;;;;;16.12;54.15;100103.03;12194476;19;20432;-83
2022/05/26 01:47:46;;;;;;;1.80;0.90;;;;;;;16.09;54.16;100104.47;12214217;19;20031;-82
2022/05/26 01:51:59;;;;;;;1.70;0.80;;;;;;;16.13;54.27;100099.16;12194326;19;20533;-81
2022/05/26 01:56:10;;;;;;;1.90;0.82;;;;;;;16.14;54.38;100090.53;12221396;19;20016;-82
2022/05/26 02:00:15;;;;;;;1.23;0.60;;;;;;;16.18;54.10;100099.16;12229406;19;20003;-82
2022/05/26 02:04:24;;;;;;;2.03;0.70;;;;;;;16.16;53.77;100102.22;12190408;19;20006;-83
2022/05/26 02:08:38;;;;;;;3.88;0.90;;;;;;;16.14;54.52;100098.06;12215717;19;20387;-81
2022/05/26 02:12:45;;;;;;;1.50;0.70;;;;;;;16.12;54.47;100097.50;12191440;19;20452;-83
2022/05/26 02:17:14;;;;;;;1.38;0.80;;;;;;;16.06;54.13;100101.38;12214944;19;20018;-82
2022/05/26 02:21:34;;;;;;;1.35;0.70;;;;;;;15.95;54.34;100098.63;12209107;19;20017;-82
2022/05/26 02:25:35;;;;;;;2.80;0.75;;;;;;;15.86;54.62;100097.53;12187639;19;20030;-80
2022/05/26 02:29:52;;;;;;;2.95;0.90;;;;;;;15.79;54.93;100110.00;12207823;19;20062;-81
2022/05/26 02:34:00;;;;;;;2.53;0.80;;;;;;;15.71;55.08;100114.19;12186593;19;20454;-82
2022/05/26 02:38:13;;;;;;;4.03;0.82;;;;;;;15.59;55.46;100119.16;12206223;19;20078;-82
2022/05/26 02:42:15;;;;;;;2.45;1.15;;;;;;;15.46;55.71;100113.00;12211620;19;20015;-82
2022/05/26 02:46:44;;;;;;;3.33;1.02;;;;;;;15.33;56.29;100110.75;12182790;19;20482;-82
2022/05/26 02:51:09;;;;;;;2.03;0.88;;;;;;;15.29;56.17;100115.19;12213333;19;20011;-83
2022/05/26 02:55:20;;;;;;;1.10;0.60;;;;;;;15.22;57.10;100122.94;12194768;19;20010;-83
2022/05/26 02:59:44;;;;;;;2.45;0.77;;;;;;;15.15;57.58;100123.19;12213562;19;20011;-83
2022/05/26 03:03:51;;;;;;;1.98;0.73;;;;;;;15.15;57.08;100130.69;12197473;19;20526;-84
2022/05/26 03:07:57;;;;;;;1.10;0.47;;;;;;;15.16;57.68;100129.56;12215803;19;20033;-84
2022/05/26 03:11:59;;;;;;;1.63;0.70;;;;;;;15.19;57.57;100129.03;12217011;19;20085;-82
2022/05/26 03:16:02;;;;;;;1.52;0.70;;;;;;;15.21;57.34;100141.53;12189318;19;20045;-82
2022/05/26 03:20:05;;;;;;;2.13;0.90;;;;;;;15.27;57.65;100134.88;12212109;19;20007;-83
2022/05/26 03:24:08;;;;;;;3.03;0.80;;;;;;;15.29;57.78;100129.06;12213204;19;20627;-82
2022/05/26 03:32:41;;;;;;;1.95;0.80;;;;;;;15.34;57.50;100137.41;12203854;19;20014;-82
2022/05/26 03:47:02;;;;;;;1.90;0.85;;;;;;;15.13;59.22;100138.44;12207173;19;20626;-82
2022/05/26 03:51:07;;;;;;;3.53;0.85;;;;;;;15.08;59.43;100150.38;12211828;19;20022;-82
2022/05/26 03:55:09;;;;;;;3.60;0.70;;;;;;;15.14;59.22;100163.16;12198626;19;20130;-81
2022/05/26 03:59:11;;;;;;;2.37;0.70;;;;;;;15.18;59.65;100163.47;12221144;19;20366;-81
2022/05/26 04:03:13;;;;;;;1.75;0.63;;;;;;;15.14;59.84;100165.94;12218302;19;20081;-82
2022/05/26 04:07:15;;;;;;;3.60;0.77;;;;;;;15.08;60.11;100172.59;12201271;19;20015;-81
2022/05/26 04:11:19;;;;;;;3.25;0.77;;;;;;;15.02;60.34;100180.06;12218223;19;20010;-82
2022/05/26 04:15:23;;;;;;;2.83;0.73;;;;;;;14.88;61.20;100181.63;12221172;19;20070;-82
2022/05/26 04:19:25;;;;;;;4.23;0.90;;;;;;;14.74;61.76;100191.53;12191093;19;20007;-80
2022/05/26 04:23:27;;;;;;;2.75;1.08;;;;;;;14.61;61.91;100189.25;12210045;19;20006;-81
2022/05/26 04:32:09;;;;;;;2.67;0.77;;;;;;;14.40;64.03;100196.56;12215008;19;20010;-81
2022/05/26 04:36:12;;;;;;;1.85;0.77;;;;;;;14.47;63.91;100205.47;12202539;19;20017;-80
2022/05/26 04:40:14;;;;;;;2.70;0.63;;;;;;;14.62;63.54;100204.78;12182810;19;20017;-81
2022/05/26 04:44:19;;;;;;;1.20;0.65;;;;;;;14.86;63.54;100207.97;12209285;19;20025;-81
2022/05/26 04:48:25;;;;;;;1.48;1.02;;;;;;;15.08;63.25;100202.25;12213704;19;20029;-80
2022/05/26 04:52:27;;;;;;;2.73;1.70;;;;;;;15.21;63.17;100199.00;12189419;19;20513;-80
2022/05/26 04:56:29;;;;;;;2.42;0.75;;;;;;;15.26;63.39;100204.59;12207940;19;20259;-80
2022/05/26 05:00:31;;;;;;;2.55;0.80;;;;;;;15.37;63.07;100206.28;12190488;19;20094;-82
2022/05/26 05:04:33;;;;;;;2.88;0.80;;;;;;;15.48;63.22;100209.94;12214180;19;20013;-81
2022/05/26 05:08:35;;;;;;;3.00;0.70;;;;;;;15.53;63.88;100214.66;12211579;19;20497;-81
2022/05/26 05:12:40;;;;;;;3.28;1.00;;;;;;;15.61;63.66;100214.97;12185568;19;20093;-82
2022/05/26 05:16:43;;;;;;;2.10;0.73;;;;;;;15.68;64.16;100226.69;12209112;19;20094;-84
2022/05/26 05:20:46;;;;;;;2.53;0.82;;;;;;;15.81;63.83;100236.44;12211757;19;20002;-80
2022/05/26 05:25:04;;;;;;;1.77;0.60;;;;;;;15.88;63.99;100239.81;12184966;19;20086;-81
2022/05/26 05:29:14;;;;;;;1.20;0.70;;;;;;;16.09;63.02;100243.47;12202475;19;20022;-83
2022/05/26 05:33:23;;;;;;;0.68;0.52;;;;;;;16.20;62.81;100249.84;12202283;19;20010;-82
2022/05/26 05:37:26;;;;;;;1.90;0.93;;;;;;;16.22;62.86;100255.16;12180436;19;20011;-82
2022/05/26 05:41:28;;;;;;;1.85;0.90;;;;;;;16.25;63.50;100263.75;12207968;19;20014;-80
2022/05/26 05:45:30;;;;;;;1.67;0.68;;;;;;;16.39;63.21;100264.88;12194865;19;20003;-81
2022/05/26 05:49:34;;;;;;;1.13;0.70;;;;;;;16.45;62.88;100274.06;12211664;19;20031;-83
2022/05/26 05:53:36;;;;;;;1.38;0.70;;;;;;;16.48;63.21;100273.53;12206201;19;20078;-83
2022/05/26 05:57:38;;;;;;;4.07;0.68;;;;;;;16.64;63.21;100277.13;12189382;19;20754;-82
2022/05/26 06:01:40;;;;;;;2.95;0.80;;;;;;;16.76;63.29;100274.91;12213542;19;20057;-82
2022/05/26 06:05:41;;;;;;;0.98;0.60;;;;;;;16.97;62.82;100275.72;12208762;19;20010;-82
2022/05/26 06:09:44;;;;;;;1.35;0.65;;;;;;;17.16;62.54;100272.34;12189631;19;20066;-81
2022/05/26 06:13:46;;;;;;;1.58;0.70;;;;;;;17.18;62.18;100270.13;12206406;19;20031;-82
2022/05/26 06:17:48;;;;;;;2.90;0.80;;;;;;;17.31;61.90;100280.66;12206578;19;20070;-83
2022/05/26 06:21:50;;;;;;;1.77;0.55;;;;;;;17.44;61.57;100290.38;12184926;19;20910;-82
2022/05/26 06:25:51;;;;;;;1.23;0.60;;;;;;;17.46;62.07;100293.69;12209957;19;20125;-81
2022/05/26 06:29:55;;;;;;;1.65;0.73;;;;;;;17.65;61.49;100291.13;12204220;19;20009;-80
2022/05/26 06:38:21;;;;;;;0.85;0.60;;;;;;;17.81;60.60;100297.50;12206636;19;20002;-82
2022/05/26 06:42:24;;;;;;;2.33;0.88;;;;;;;17.97;60.95;100293.53;12209805;19;20341;-81
2022/05/26 06:46:35;;;;;;;4.97;1.00;;;;;;;18.11;60.67;100302.91;12185382;19;20003;-81
2022/05/26 06:50:38;;;;;;;2.22;0.70;;;;;;;18.11;60.92;100299.28;12207119;19;20048;-83
2022/05/26 06:54:43;;;;;;;3.17;0.47;;;;;;;18.20;59.56;100309.56;12187471;19;20003;-83
2022/05/26 06:58:44;;;;;;;2.45;0.60;;;;;;;18.32;59.44;100305.56;12203102;19;20011;-83
2022/05/26 07:02:48;;;;;;;0.85;0.50;;;;;;;18.37;58.88;100313.91;12203820;19;20091;-83
2022/05/26 07:06:51;;;;;;;1.95;0.60;;;;;;;18.39;58.16;100314.47;12181595;19;20095;-83
2022/05/26 07:10:54;;;;;;;3.05;0.65;;;;;;;18.45;58.33;100322.50;12214576;19;20011;-83
2022/05/26 07:14:56;;;;;;;2.72;0.65;;;;;;;18.57;58.69;100335.25;12200910;19;19999;-81
2022/05/26 07:18:57;;;;;;;3.67;0.63;;;;;;;18.68;58.23;100336.84;12191777;19;20010;-82
2022/05/26 07:22:59;;;;;;;2.47;0.77;;;;;;;18.80;57.83;100345.72;12217326;19;20590;-83
2022/05/26 07:27:01;;;;;;;2.33;0.50;;;;;;;18.80;56.86;100333.69;12218015;19;20006;-83
2022/05/26 07:31:03;;;;;;;1.63;0.63;;;;;;;18.81;57.03;100346.53;12200581;19;20007;-81
2022/05/26 07:35:05;;;;;;;2.70;0.60;;;;;;;18.88;56.47;100338.66;12215828;19;20006;-84
2022/05/26 07:43:28;;;;;;;1.05;0.57;;;;;;;19.01;55.29;100340.78;12205150;19;20386;-83
2022/05/26 07:47:30;;;;;;;4.30;0.65;;;;;;;19.20;55.03;100348.44;12228672;19;20464;-83
2022/05/26 07:51:31;;;;;;;3.38;0.65;;;;;;;19.27;54.37;100357.28;12207157;19;20086;-84
2022/05/26 07:55:34;;;;;;;3.35;0.75;;;;;;;19.47;53.87;100359.03;12222865;19;20471;-82
2022/05/26 07:59:36;;;;;;;5.03;0.63;;;;;;;19.61;53.75;100374.00;12219289;19;20010;-83
2022/05/26 08:03:38;;;;;;;0.35;0.30;;;;;;;19.65;53.70;100361.09;12198512;19;20028;-81
2022/05/26 08:07:43;;;;;;;2.55;0.80;;;;;;;19.76;53.51;100353.44;12223835;19;20010;-82
2022/05/26 08:11:46;;;;;;;3.08;0.60;;;;;;;19.93;53.70;100359.38;12224724;19;20007;-82
2022/05/26 08:15:49;;;;;;;3.75;0.60;;;;;;;19.99;52.96;100363.78;12196807;19;20011;-82
2022/05/26 08:19:52;;;;;;;2.50;0.65;;;;;;;19.91;52.78;100375.63;12207152;19;20025;-82
2022/05/26 08:23:54;;;;;;;2.63;0.52;;;;;;;19.99;52.66;100372.19;12198498;19;20028;-82
2022/05/26 08:27:56;;;;;;;0.73;0.60;;;;;;;20.10;52.86;100383.22;12197255;19;20517;-85
2022/05/26 08:31:58;;;;;;;2.58;0.57;;;;;;;20.14;52.35;100385.13;12214252;19;20025;-84
2022/05/26 08:36:06;;;;;;;3.47;0.63;;;;;;;20.09;51.73;100381.56;12220156;19;20606;-82
2022/05/26 08:40:36;;;;;;;3.67;0.65;;;;;;;20.24;51.81;100389.75;12185606;19;20010;-81
2022/05/26 08:44:39;;;;;;;1.52;0.80;;;;;;;20.39;51.58;100392.34;12204583;19;20019;-81
2022/05/26 08:48:58;;;;;;;;;;;;;;;20.57;51.00;100398.28;12188321;19;20442;-81
2022/05/26 08:53:25;;;;;;;2.22;1.35;;;;;;;20.76;49.98;100396.28;12207922;19;20451;-80
2022/05/26 08:57:33;;;;;;;2.00;0.95;;;;;;;20.91;49.91;100381.22;12198274;19;20705;-81
2022/05/26 09:01:36;;;;;;;2.60;0.60;;;;;;;21.08;49.46;100394.69;12184531;19;20010;-80
2022/05/26 09:05:41;;;;;;;4.80;0.82;;;;;;;21.42;47.76;100393.53;12208570;19;20037;-81
2022/05/26 09:14:34;;;;;;;2.42;0.68;;;;;;;21.44;46.36;100410.91;12200526;19;20038;-82
2022/05/26 09:18:37;;;;;;;3.40;0.50;;;;;;;21.38;46.79;100407.34;12187013;19;20088;-81
2022/05/26 09:22:45;;;;;;;1.20;0.70;;;;;;;21.19;46.44;100407.38;12206234;19;20023;-81
2022/05/26 09:26:51;;;;;;;3.22;0.55;;;;;;;20.95;46.91;100418.72;12210429;19;20018;-81
2022/05/26 09:30:53;;;;;;;2.78;0.88;;;;;;;20.82;47.28;100420.31;12182479;19;20027;-81
2022/05/26 09:35:13;;;;;;;2.42;0.50;;;;;;;20.79;47.34;100425.66;12201634;19;20097;-81
2022/05/26 09:39:25;;;;;;;4.22;0.70;;;;;;;20.85;47.31;100416.91;12201998;19;20030;-81
2022/05/26 09:43:27;;;;;;;1.25;0.52;;;;;;;21.09;46.15;100415.94;12179223;19;20014;-81
2022/05/26 09:47:48;;;;;;;0.60;0.50;;;;;;;21.74;45.77;100424.34;12196863;19;20010;-82
2022/05/26 09:51:50;;;;;;;2.83;0.50;;;;;;;22.08;44.24;100423.13;12185277;19;20076;-81
2022/05/26 09:55:54;;;;;;;0.30;0.30;;;;;;;22.21;43.12;100419.50;12212976;19;20087;-82
2022/05/26 09:59:56;;;;;;;1.10;0.55;;;;;;;22.39;43.07;100428.97;12207091;19;20023;-80
2022/05/26 10:04:22;;;;;;;0.40;0.30;;;;;;;22.07;42.76;100427.94;12181559;19;20098;-77
2022/05/26 10:08:44;;;;;;;1.48;0.60;;;;;;;22.29;43.32;100432.81;12212012;19;20010;-81
2022/05/26 10:12:55;;;;;;;2.95;0.57;;;;;;;22.63;42.40;100437.13;12177015;19;20066;-79
2022/05/26 10:17:13;;;;;;;3.92;0.85;;;;;;;22.96;41.75;100445.38;12196223;19;20082;-80
2022/05/26 10:21:39;;;;;;;4.32;0.77;;;;;;;23.17;40.99;100429.72;12197303;19;19999;-81
2022/05/26 10:26:07;;;;;;;5.95;0.70;;;;;;;23.01;41.16;100436.03;12186140;19;20007;-80
2022/05/26 10:30:24;;;;;;;3.75;0.75;;;;;;;22.80;41.36;100430.03;12210251;19;20070;-81
2022/05/26 10:34:29;;;;;;;2.13;0.57;;;;;;;22.67;41.97;100431.72;12185558;19;20015;-82
2022/05/26 10:39:10;;;;;;;1.42;0.68;;;;;;;22.32;41.98;100436.16;12198372;19;20023;-80
2022/05/26 10:43:21;;;;;;;1.20;0.45;;;;;;;22.50;42.11;100440.81;12183099;19;20008;-81
2022/05/26 10:47:47;;;;;;;2.97;0.65;;;;;;;22.88;42.04;100432.91;12211055;19;20007;-82
2022/05/26 10:52:00;;;;;;;1.10;0.45;;;;;;;22.79;41.36;100432.00;12178953;19;20025;-81
2022/05/26 10:56:13;;;;;;;1.75;0.45;;;;;;;23.29;40.84;100434.75;12222033;19;20002;-82
2022/05/26 11:00:23;;;;;;;1.75;0.60;;;;;;;23.80;39.98;100425.00;12211462;19;20014;-81
2022/05/26 11:04:35;;;;;;;0.90;0.50;;;;;;;23.60;40.13;100434.78;12197646;19;20018;-81
2022/05/26 11:08:48;;;;;;;0.77;0.40;;;;;;;24.14;40.29;100429.09;12211240;19;20097;-81
2022/05/26 11:13:00;;;;;;;2.38;0.73;;;;;;;24.92;39.48;100429.25;12190227;19;21636;-80
2022/05/26 11:17:21;;;;;;;;;;;;;;;24.87;39.29;100411.72;12207977;19;20086;-81
2022/05/26 11:21:23;;;;;;;1.20;0.40;;;;;;;25.04;38.37;100422.13;12213464;19;19951;-81
2022/05/26 11:25:31;;;;;;;0.77;0.35;;;;;;;25.21;37.59;100414.53;12198382;19;20007;-82
2022/05/26 11:29:39;;;;;;;1.27;0.32;;;;;;;25.83;36.40;100416.06;12218059;19;20021;-79
2022/05/26 11:38:21;;;;;;;0.70;0.47;;;;;;;24.44;37.85;100418.94;12206214;19;20010;-82
2022/05/26 11:42:34;;;;;;;0.50;0.40;;;;;;;25.05;37.23;100416.19;12214303;19;20019;-83
2022/05/26 11:46:42;;;;;;;0.80;0.73;;;;;;;25.83;36.59;100413.25;12189011;19;20032;-80
2022/05/26 11:50:46;;;;;;;2.60;0.47;;;;;;;25.51;36.47;100428.75;12218517;19;20020;-82
2022/05/26 11:55:02;;;;;;;1.48;0.50;;;;;;;24.26;38.32;100425.66;12188681;19;20007;-81
2022/05/26 11:59:26;;;;;;;0.88;0.50;;;;;;;23.50;39.55;100426.63;12208677;19;20011;-81
2022/05/26 12:03:29;;;;;;;1.23;0.60;;;;;;;23.54;40.65;100416.38;12204913;19;20033;-80
2022/05/26 12:07:37;;;;;;;2.08;0.70;;;;;;;24.12;39.01;100408.88;12190302;19;20019;-80
2022/05/26 12:12:03;;;;;;;4.13;0.50;;;;;;;24.79;37.91;100410.53;12211210;19;20007;-81
2022/05/26 12:16:14;;;;;;;1.70;0.55;;;;;;;25.53;37.39;100401.03;12180929;19;20015;-82
2022/05/26 12:20:15;;;;;;;1.20;0.43;;;;;;;26.55;34.40;100393.59;12214799;19;20029;-85
2022/05/26 12:24:32;;;;;;;1.25;0.70;;;;;;;25.89;35.06;100397.78;12197411;19;20017;-84
2022/05/26 12:28:34;;;;;;;1.77;0.70;;;;;;;25.85;34.79;100401.63;12186097;19;20010;-82
2022/05/26 12:32:38;;;;;;;1.67;0.70;;;;;;;26.84;34.38;100380.59;12214783;19;20857;-82
2022/05/26 12:36:53;;;;;;;1.23;0.80;;;;;;;27.87;32.49;100380.69;12186746;19;20027;-82
2022/05/26 12:41:14;;;;;;;1.73;0.75;;;;;;;28.93;31.29;100373.13;12209979;19;20070;-80
2022/05/26 12:45:21;;;;;;;2.08;0.68;;;;;;;28.96;30.69;100370.38;12211610;19;20098;-81
2022/05/26 12:49:30;;;;;;;2.97;0.70;;;;;;;29.12;29.95;100378.16;12184475;19;20015;-82
2022/05/26 12:53:35;;;;;;;2.22;0.70;;;;;;;29.78;29.72;100379.59;12217373;19;20078;-81
2022/05/26 12:57:42;;;;;;;3.67;0.60;;;;;;;29.97;28.93;100363.44;12195397;19;20047;-81
2022/05/26 13:01:47;;;;;;;3.58;0.77;;;;;;;28.92;30.08;100360.97;12227147;19;20450;-81
2022/05/26 13:06:00;;;;;;;1.00;0.52;;;;;;;29.17;29.58;100363.72;12211893;19;20002;-81
2022/05/26 13:10:02;;;;;;;1.30;0.65;;;;;;;28.54;29.90;100367.09;12190682;19;20015;-82
2022/05/26 13:14:16;;;;;;;2.50;0.80;;;;;;;29.17;29.92;100363.72;12195882;19;20003;-81
2022/05/26 13:18:23;;;;;;;3.28;0.80;;;;;;;31.00;27.30;100369.09;12211104;19;20018;-80
2022/05/26 13:22:28;;;;;;;1.77;0.70;;;;;;;30.02;27.09;100362.34;12185550;19;20033;-85
2022/05/26 13:26:31;;;;;;;1.25;0.60;;;;;;;30.41;27.06;100368.19;12208867;19;20010;-83
2022/05/26 13:34:59;;;;;;;4.13;0.85;;;;;;;29.27;27.92;100366.88;12207569;19;20124;-83
2022/05/26 13:39:09;;;;;;;1.00;0.80;;;;;;;30.57;26.50;100354.72;12201555;19;21455;-82
2022/05/26 13:43:15;;;;;;;1.60;0.65;;;;;;;29.98;26.08;100367.94;12181154;19;20011;-82
2022/05/26 13:47:17;;;;;;;1.15;0.70;;;;;;;28.63;27.46;100357.25;12199586;19;20078;-82
2022/05/26 13:51:23;;;;;;;1.40;0.75;;;;;;;27.75;28.56;100364.47;12202544;19;20071;-82
2022/05/26 13:55:27;;;;;;;2.55;0.70;;;;;;;27.23;29.08;100359.44;12188969;19;20007;-80
2022/05/26 13:59:35;;;;;;;2.35;0.82;;;;;;;26.77;29.93;100356.53;12195269;19;20070;-79
2022/05/26 14:03:39;;;;;;;4.68;0.70;;;;;;;26.10;31.17;100351.81;12187445;19;20075;-81
2022/05/26 14:08:05;;;;;;;2.58;0.98;;;;;;;27.10;30.85;100355.72;12210747;19;20033;-81
2022/05/26 14:12:23;;;;;;;1.67;0.70;;;;;;;29.27;28.65;100354.66;12203332;19;20010;-80
2022/05/26 14:16:27;;;;;;;2.28;0.70;;;;;;;30.85;27.24;100334.66;12174888;19;20018;-81
2022/05/26 14:20:29;;;;;;;1.70;0.73;;;;;;;29.96;27.87;100347.59;12198169;19;20070;-81
2022/05/26 14:24:50;;;;;;;3.35;0.90;;;;;;;32.07;25.22;100327.56;12188834;19;20026;-80
2022/05/26 14:28:51;;;;;;;1.88;0.70;;;;;;;31.66;25.52;100328.06;12204141;19;20015;-80
2022/05/26 14:32:53;;;;;;;;;;;;;;;30.91;26.45;100311.56;12203214;19;20014;-80
2022/05/26 14:36:57;;;;;;;1.40;0.75;;;;;;;33.26;24.40;100299.38;12177497;19;19914;-81
2022/05/26 14:41:00;;;;;;;2.05;0.80;;;;;;;32.92;23.13;100307.94;12202613;19;20011;-81
2022/05/26 14:45:12;;;;;;;1.73;0.70;;;;;;;30.71;25.39;100288.78;12211297;19;20038;-84
2022/05/26 14:49:17;;;;;;;1.40;0.73;;;;;;;29.20;26.80;100297.72;12197904;19;20006;-81
2022/05/26 14:55:26;;;;;;;2.92;1.00;;;;;;;28.36;27.96;100296.47;12217907;19;20011;-81
2022/05/26 14:57:44;;;;;;;5.60;0.93;;;;;;;27.92;28.06;100304.81;12182364;19;20027;-82
2022/05/26 15:01:45;;;;;;;;;;;;;;;27.39;28.92;100286.84;12205573;19;20031;-82
2022/05/26 15:05:47;;;;;;;5.72;0.98;;;;;;;28.05;28.83;100288.66;12199658;19;19911;-80
2022/05/26 15:09:49;;;;;;;2.72;1.20;;;;;;;30.14;26.82;100291.19;12184599;19;20010;-82
2022/05/26 15:13:52;;;;;;;2.28;1.10;;;;;;;32.06;24.83;100303.91;12198199;19;20006;-81
2022/05/26 15:17:55;;;;;;;2.13;0.77;;;;;;;31.54;24.94;100286.34;12201438;19;20031;-82
2022/05/26 15:21:57;;;;;;;3.08;1.20;;;;;;;31.01;25.98;100288.19;12177211;19;20014;-82
2022/05/26 15:26:07;;;;;;;3.45;0.90;;;;;;;29.73;27.11;100281.28;12209347;19;20027;-81
2022/05/26 15:30:14;;;;;;;2.67;1.00;;;;;;;28.04;28.78;100275.66;12189965;19;20406;-82
2022/05/26 15:34:15;;;;;;;3.28;1.10;;;;;;;27.18;29.84;100281.25;12174361;19;20348;-81
2022/05/26 15:38:17;;;;;;;1.98;0.80;;;;;;;26.66;30.52;100272.50;12196880;19;20046;-80
2022/05/26 15:42:20;;;;;;;2.72;0.95;;;;;;;26.46;30.85;100266.47;12212398;19;20003;-81
2022/05/26 15:46:21;;;;;;;;;;;;;;;26.03;31.29;100266.81;12192111;19;20383;-81
2022/05/26 15:50:25;;;;;;;;;;;;;;;25.59;31.75;100269.03;12202035;19;19994;-81
2022/05/26 15:54:28;;;;;;;6.13;1.17;;;;;;;24.82;33.01;100268.94;12214532;19;19911;-81
2022/05/26 15:58:30;;;;;;;2.72;0.80;;;;;;;24.61;33.77;100268.00;12183465;19;20011;-81
2022/05/26 16:02:32;;;;;;;;;;;;;;;24.47;33.99;100259.69;12199359;19;20006;-80
2022/05/26 16:06:34;;;;;;;2.67;0.95;;;;;;;24.21;33.75;100260.53;12186942;19;19931;-80
2022/05/26 16:10:35;;;;;;;3.37;1.07;;;;;;;23.79;35.02;100246.03;12214111;19;20010;-81
2022/05/26 16:14:37;;;;;;;1.63;0.80;;;;;;;23.45;35.68;100254.38;12212225;19;20786;-81
2022/05/26 16:18:39;;;;;;;4.63;1.93;;;;;;;23.37;35.73;100244.72;12189692;19;20074;-80
2022/05/26 16:22:42;;;;;;;5.47;1.30;;;;;;;23.29;36.79;100251.13;12204720;19;20270;-80
2022/05/26 16:26:43;;;;;;;5.40;1.60;;;;;;;23.08;36.97;100246.13;12205587;19;20374;-80
2022/05/26 16:30:47;;;;;;;3.70;1.45;;;;;;;23.07;37.38;100241.63;12185843;19;20106;-80
2022/05/26 16:36:40;;;;;;;3.10;0.90;;;;;;;23.28;36.95;100250.31;12201623;19;20417;-80
2022/05/26 16:39:16;;;;;;;1.70;0.95;;;;;;;23.22;37.21;100254.44;12205956;19;20027;-82
2022/05/26 16:43:20;;;;;;;4.68;1.10;;;;;;;23.16;36.90;100264.16;12182277;19;20014;-81
2022/05/26 16:47:23;;;;;;;5.78;2.97;;;;;;;23.17;37.73;100266.66;12204001;19;20031;-83
2022/05/26 16:51:25;;;;;;;5.23;1.40;;;;;;;23.25;37.39;100267.84;12206357;19;20006;-83
2022/05/26 16:55:28;;;;;;;3.10;1.13;;;;;;;22.88;38.34;100269.13;12188798;19;20017;-83
2022/05/26 16:59:30;;;;;;;4.55;1.55;;;;;;;22.61;39.07;100261.66;12197800;19;20019;-83
2022/05/26 17:03:35;;;;;;;4.68;1.35;;;;;;;22.57;39.38;100253.03;12186615;19;20762;-85
2022/05/26 17:07:40;;;;;;;3.67;1.30;;;;;;;22.66;39.53;100258.69;12205635;19;20371;-82
2022/05/26 17:11:42;;;;;;;3.88;1.38;;;;;;;22.49;40.14;100259.44;12212448;19;20030;-82
2022/05/26 17:24:28;;;;;;;4.20;1.38;;;;;;;21.97;40.56;100262.56;12204525;19;20077;-81
2022/05/26 17:28:30;;;;;;;5.90;2.05;;;;;;;21.85;40.71;100263.09;12177407;19;20014;-83
2022/05/26 17:32:32;;;;;;;;;;;;;;;21.70;40.62;100260.63;12211821;19;20090;-82
2022/05/26 17:36:36;;;;;;;3.60;1.55;;;;;;;21.66;41.36;100262.41;12180496;19;20366;-81
2022/05/26 17:40:41;;;;;;;3.47;1.73;;;;;;;21.65;41.64;100252.31;12203793;19;20029;-82
2022/05/26 17:44:47;;;;;;;6.28;1.55;;;;;;;21.50;42.02;100252.66;12198866;19;20023;-81
2022/05/26 17:48:49;;;;;;;7.35;1.73;;;;;;;21.36;42.34;100247.91;12175451;19;20015;-81
2022/05/26 17:52:51;;;;;;;7.53;1.70;;;;;;;21.25;42.40;100256.78;12205120;19;20018;-82
2022/05/26 17:56:53;;;;;;;3.20;1.40;;;;;;;21.11;42.68;100245.56;12211450;19;20019;-81
2022/05/26 18:01:00;;;;;;;3.88;1.50;;;;;;;20.91;43.71;100250.41;12174431;19;20035;-81
2022/05/26 18:05:02;;;;;;;3.47;1.48;;;;;;;20.71;44.22;100259.19;12199711;19;20007;-82
2022/05/26 18:09:04;;;;;;;5.75;1.40;;;;;;;20.56;44.49;100260.28;12195848;19;20011;-81
2022/05/26 18:13:06;;;;;;;5.22;1.70;;;;;;;20.49;44.75;100255.03;12180979;19;20082;-81
2022/05/26 18:17:11;;;;;;;4.25;1.40;;;;;;;20.45;44.82;100250.34;12196280;19;20073;-81
2022/05/26 18:21:14;;;;;;;7.32;2.47;;;;;;;20.41;44.87;100255.72;12196355;19;20515;-81
2022/05/26 18:25:21;;;;;;;3.90;1.30;;;;;;;20.29;45.35;100252.56;12179380;19;20421;-81
2022/05/26 18:29:24;;;;;;;4.78;1.60;;;;;;;20.21;45.78;100256.88;12202359;19;20010;-81
2022/05/26 18:33:28;;;;;;;5.22;1.63;;;;;;;20.10;46.37;100249.75;12198813;19;20014;-81
2022/05/26 18:37:35;;;;;;;5.72;1.65;;;;;;;20.05;46.13;100244.25;12185188;19;20086;-81
2022/05/26 18:41:36;;;;;;;8.77;1.88;;;;;;;19.97;46.21;100242.97;12205694;19;20027;-81
2022/05/26 18:45:38;;;;;;;3.83;2.03;;;;;;;19.80;47.22;100243.47;12174883;19;20010;-82
2022/05/26 18:49:41;;;;;;;3.70;1.63;;;;;;;19.70;47.36;100249.22;12200754;19;20526;-82
2022/05/26 18:53:43;;;;;;;7.55;2.50;;;;;;;19.57;47.68;100253.56;12202272;19;20687;-82
2022/05/26 18:57:44;;;;;;;5.22;1.70;;;;;;;19.48;47.73;100251.69;12171468;19;20007;-81
2022/05/26 19:01:46;;;;;;;3.58;1.50;;;;;;;19.36;47.76;100243.75;12203014;19;20089;-81
2022/05/26 19:05:56;;;;;;;4.65;2.03;;;;;;;19.25;48.08;100248.63;12195559;19;20014;-81
2022/05/26 19:09:57;;;;;;;5.30;1.90;;;;;;;19.10;49.36;100254.41;12175614;19;20027;-81
2022/05/26 19:13:59;;;;;;;6.25;1.60;;;;;;;19.04;49.25;100250.00;12203245;19;20013;-80
2022/05/26 19:18:07;;;;;;;6.03;2.15;;;;;;;18.94;49.44;100250.09;12205305;19;20010;-81
2022/05/26 19:22:08;;;;;;;4.45;1.75;;;;;;;18.87;49.41;100253.22;12190800;19;20006;-81
2022/05/26 19:26:10;;;;;;;3.72;2.00;;;;;;;18.76;50.42;100249.69;12216996;19;20501;-81
2022/05/26 19:30:12;;;;;;;3.05;1.52;;;;;;;18.74;50.08;100259.47;12209088;19;20007;-81
2022/05/26 19:34:13;;;;;;;3.15;1.60;;;;;;;18.63;51.37;100256.75;12193119;19;20010;-81
2022/05/26 19:38:16;;;;;;;4.07;1.70;;;;;;;18.59;50.81;100261.28;12210525;19;20086;-81
2022/05/26 19:42:25;;;;;;;3.83;1.80;;;;;;;18.54;51.28;100263.28;12214353;19;20002;-82
2022/05/26 19:46:33;;;;;;;3.00;1.50;;;;;;;18.52;51.07;100263.56;12183588;19;20018;-82
2022/05/26 19:50:35;;;;;;;9.07;2.00;;;;;;;18.47;51.28;100269.16;12210669;19;20017;-83